Time;durP1;ratioP1;P1;durP2;ratioP2;P2;SDS_P1;SDS_P2;PMS_P1;PMS_P2;Temp;Humidity;BMP_temperature;BMP_pressure;BME280_temperature;BME280_humidity;BME280_pressure;Samples;Min_cycle;Max_cycle;Signal;HPM_P1;HPM_P2
2022/12/18 00:02:04;;;;;;;35.87;12.07;;;;;;;-5.60;100.00;102503.97;5023545;28;20845;-74
2022/12/18 00:04:31;;;;;;;37.17;12.00;;;;;;;-5.59;100.00;102509.19;5021363;28;20461;-74
2022/12/18 00:06:57;;;;;;;32.13;10.80;;;;;;;-5.56;100.00;102505.94;5018213;28;20471;-74
2022/12/18 00:09:24;;;;;;;29.83;10.07;;;;;;;-5.59;100.00;102504.09;5022118;28;20491;-74
2022/12/18 00:11:50;;;;;;;26.33;10.73;;;;;;;-5.55;100.00;102506.06;5018223;28;20454;-75
2022/12/18 00:14:17;;;;;;;27.70;10.30;;;;;;;-5.59;100.00;102508.31;5017115;28;20476;-74
2022/12/18 00:16:46;;;;;;;30.50;11.33;;;;;;;-5.55;100.00;102507.72;5017511;28;20862;-74
2022/12/18 00:19:13;;;;;;;32.77;12.10;;;;;;;-5.53;100.00;102507.03;5018952;28;20487;-75
2022/12/18 00:21:39;;;;;;;31.93;12.93;;;;;;;-5.54;100.00;102514.56;5023463;28;20457;-74
2022/12/18 00:24:06;;;;;;;28.17;10.97;;;;;;;-5.54;100.00;102518.00;5019348;28;20460;-74
2022/12/18 00:26:35;;;;;;;33.53;12.90;;;;;;;-5.54;100.00;102519.66;5022166;28;21578;-74
2022/12/18 00:29:04;;;;;;;34.13;11.30;;;;;;;-5.52;100.00;102521.53;5021134;28;20472;-74
2022/12/18 00:31:31;;;;;;;31.47;12.17;;;;;;;-5.51;100.00;102515.66;5016283;28;20892;-74
2022/12/18 00:33:59;;;;;;;32.83;12.20;;;;;;;-5.48;100.00;102516.66;5004689;28;21043;-75
2022/12/18 00:36:30;;;;;;;33.30;13.03;;;;;;;-5.47;100.00;102518.41;5019894;28;20806;-74
2022/12/18 00:38:59;;;;;;;41.10;13.33;;;;;;;-5.45;100.00;102521.94;5017541;28;20457;-74
2022/12/18 00:44:12;;;;;;;35.83;11.70;;;;;;;-5.37;100.00;102528.44;5020616;28;21158;-74
2022/12/18 00:46:39;;;;;;;35.50;13.00;;;;;;;-5.36;100.00;102530.22;5020133;28;20456;-74
2022/12/18 00:49:07;;;;;;;36.90;14.53;;;;;;;-5.34;100.00;102532.09;5018421;28;20499;-74
2022/12/18 00:51:33;;;;;;;37.30;12.47;;;;;;;-5.40;100.00;102526.59;5021690;28;20821;-74
2022/12/18 00:53:59;;;;;;;38.53;12.17;;;;;;;-5.43;100.00;102517.88;5016831;28;20460;-74
2022/12/18 00:56:26;;;;;;;37.67;13.53;;;;;;;-5.38;100.00;102521.59;5018372;28;20468;-74
2022/12/18 00:58:53;;;;;;;34.00;12.20;;;;;;;-5.41;100.00;102518.84;5004459;28;21029;-75
2022/12/18 01:01:19;;;;;;;36.30;14.27;;;;;;;-5.41;100.00;102511.22;5019489;28;20460;-74
2022/12/18 01:03:46;;;;;;;42.57;12.93;;;;;;;-5.39;100.00;102520.72;5020183;28;20526;-75
2022/12/18 01:06:15;;;;;;;35.97;12.33;;;;;;;-5.43;100.00;102518.75;5003869;28;20527;-74
2022/12/18 01:08:42;;;;;;;32.80;11.13;;;;;;;-5.44;100.00;102516.97;5016537;28;20493;-74
2022/12/18 01:11:14;;;;;;;29.30;10.83;;;;;;;-5.48;100.00;102516.66;5021942;28;21032;-74
2022/12/18 01:13:41;;;;;;;33.50;11.13;;;;;;;-5.46;100.00;102515.97;5015763;28;20489;-74
2022/12/18 01:16:08;;;;;;;27.57;10.67;;;;;;;-5.49;100.00;102509.81;5020353;28;20468;-74
2022/12/18 01:18:35;;;;;;;31.50;11.00;;;;;;;-5.48;100.00;102519.22;5005763;28;20472;-74
2022/12/18 01:21:07;;;;;;;32.73;11.17;;;;;;;-5.45;100.00;102515.22;5026602;28;20476;-74
2022/12/18 01:23:37;;;;;;;33.03;11.13;;;;;;;-5.44;100.00;102518.63;5002909;28;20465;-74
2022/12/18 01:26:08;;;;;;;29.00;11.17;;;;;;;-5.44;100.00;102523.72;5019091;28;22162;-74
2022/12/18 01:28:35;;;;;;;30.30;10.53;;;;;;;-5.42;100.00;102522.16;5015338;28;20484;-74
2022/12/18 01:31:16;;;;;;;32.63;9.93;;;;;;;-5.42;100.00;102525.56;5017243;28;20850;-74
2022/12/18 01:33:44;;;;;;;32.23;10.90;;;;;;;-5.41;100.00;102526.47;5020682;28;20469;-74
2022/12/18 01:36:16;;;;;;;25.00;10.20;;;;;;;-5.44;100.00;102524.59;5025528;28;20452;-74
2022/12/18 01:38:44;;;;;;;37.10;11.33;;;;;;;-5.52;100.00;102524.06;5020475;28;20469;-74
2022/12/18 01:41:11;;;;;;;26.90;10.30;;;;;;;-5.49;100.00;102531.00;5002770;28;20489;-74
2022/12/18 01:43:46;;;;;;;29.83;9.90;;;;;;;-5.56;100.00;102539.91;5018104;28;20870;-74
2022/12/18 01:46:12;;;;;;;25.33;8.27;;;;;;;-5.56;100.00;102537.34;5016975;28;20476;-74
2022/12/18 01:48:40;;;;;;;25.10;9.40;;;;;;;-5.61;100.00;102533.59;5020894;28;20481;-74
2022/12/18 01:51:09;;;;;;;24.43;8.57;;;;;;;-5.65;100.00;102538.34;5003791;28;20549;-74
2022/12/18 01:53:37;;;;;;;21.80;8.50;;;;;;;-5.70;100.00;102543.09;5013142;28;20499;-74
2022/12/18 01:56:05;;;;;;;17.87;9.27;;;;;;;-5.69;100.00;102547.44;5003093;28;20868;-74
2022/12/18 01:58:40;;;;;;;21.63;9.47;;;;;;;-5.71;100.00;102549.84;5004460;28;20629;-74
2022/12/18 02:01:07;;;;;;;23.10;8.20;;;;;;;-5.66;100.00;102549.28;5018179;28;20480;-74
2022/12/18 02:03:34;;;;;;;22.27;7.57;;;;;;;-5.69;100.00;102549.09;5020341;28;20454;-74
2022/12/18 02:06:07;;;;;;;16.90;7.90;;;;;;;-5.71;100.00;102547.31;5023255;28;20465;-74
2022/12/18 02:08:40;;;;;;;23.30;7.90;;;;;;;-5.76;100.00;102545.22;5022069;28;20484;-74
2022/12/18 02:11:16;;;;;;;18.43;8.10;;;;;;;-5.85;100.00;102549.66;5022200;28;20482;-74
2022/12/18 02:13:52;;;;;;;23.70;8.87;;;;;;;-5.82;100.00;102562.56;5002441;28;20471;-74
2022/12/18 02:16:24;;;;;;;18.97;7.50;;;;;;;-5.86;100.00;102560.59;5021303;28;20464;-74
2022/12/18 02:18:57;;;;;;;15.70;6.17;;;;;;;-5.84;100.00;102570.09;5027088;28;20863;-74
2022/12/18 02:21:34;;;;;;;17.23;7.70;;;;;;;-5.79;100.00;102567.88;5006152;28;21004;-74
2022/12/18 02:24:18;;;;;;;20.90;7.33;;;;;;;-5.82;100.00;102571.09;5019688;28;20866;-74
2022/12/18 02:26:50;;;;;;;18.10;7.83;;;;;;;-5.80;100.00;102567.00;5022689;28;20820;-74
2022/12/18 02:29:27;;;;;;;17.57;7.83;;;;;;;-5.77;100.00;102564.69;5005709;28;20574;-74
2022/12/18 02:31:57;;;;;;;16.20;8.67;;;;;;;-5.72;100.00;102565.00;5008619;28;21023;-74
2022/12/18 02:34:29;;;;;;;17.93;8.43;;;;;;;-5.78;100.00;102562.91;5022624;28;20490;-74
2022/12/18 02:36:59;;;;;;;17.20;7.50;;;;;;;-5.75;100.00;102558.03;5005442;28;20467;-74
2022/12/18 02:39:30;;;;;;;19.90;8.13;;;;;;;-5.77;100.00;102559.59;5003334;28;20479;-74
2022/12/18 02:42:07;;;;;;;18.00;6.87;;;;;;;-5.82;100.00;102566.00;5006099;28;20453;-74
2022/12/18 02:44:34;;;;;;;19.57;8.23;;;;;;;-5.81;100.00;102565.22;5020816;28;20459;-74
2022/12/18 02:47:01;;;;;;;19.70;7.73;;;;;;;-5.80;100.00;102571.22;5005352;28;20471;-74
2022/12/18 02:49:35;;;;;;;18.53;8.63;;;;;;;-5.82;100.00;102567.66;5005021;28;22218;-74
2022/12/18 02:52:23;;;;;;;14.53;7.00;;;;;;;-5.84;100.00;102569.19;5005635;28;22100;-74
2022/12/18 02:54:59;;;;;;;17.10;7.90;;;;;;;-5.87;100.00;102571.50;5006614;28;20978;-74
2022/12/18 02:57:35;;;;;;;17.53;8.50;;;;;;;-5.88;100.00;102570.63;5021508;28;20653;-74
2022/12/18 03:00:07;;;;;;;21.47;7.90;;;;;;;-5.91;100.00;102568.78;5007614;28;20484;-74
2022/12/18 03:02:40;;;;;;;22.43;9.47;;;;;;;-5.94;100.00;102571.09;5008482;28;20499;-74
2022/12/18 03:05:13;;;;;;;22.97;9.13;;;;;;;-5.95;100.00;102570.97;5011949;28;20463;-74
2022/12/18 03:07:49;;;;;;;22.90;9.50;;;;;;;-5.90;100.00;102578.16;5008083;28;20486;-74
2022/12/18 03:10:24;;;;;;;22.83;9.20;;;;;;;-5.92;100.00;102568.66;5007457;28;20487;-74
2022/12/18 03:12:57;;;;;;;23.10;8.53;;;;;;;-5.86;100.00;102571.63;5017073;28;20462;-74
2022/12/18 03:15:30;;;;;;;21.63;9.37;;;;;;;-5.79;100.00;102572.94;5010357;28;21067;-74
2022/12/18 03:18:11;;;;;;;18.13;8.60;;;;;;;-5.80;100.00;102578.81;5019623;28;20464;-74
2022/12/18 03:20:43;;;;;;;19.77;7.60;;;;;;;-5.87;100.00;102581.66;5020569;28;20479;-73
2022/12/18 03:23:16;;;;;;;26.27;9.30;;;;;;;-5.82;100.00;102585.44;5007820;28;20479;-74
2022/12/18 03:25:48;;;;;;;26.20;9.90;;;;;;;-5.79;100.00;102586.53;5005390;28;20457;-74
2022/12/18 03:28:20;;;;;;;26.67;9.60;;;;;;;-5.88;100.00;102580.81;5006998;28;20821;-75
2022/12/18 03:30:53;;;;;;;20.17;8.90;;;;;;;-5.88;100.00;102580.81;4999756;28;20517;-75
2022/12/18 03:33:24;;;;;;;28.87;10.53;;;;;;;-5.83;100.00;102586.22;5006312;28;20458;-74
2022/12/18 03:35:53;;;;;;;21.73;8.67;;;;;;;-5.83;100.00;102587.09;5004545;28;20460;-74
2022/12/18 03:38:20;;;;;;;24.40;10.00;;;;;;;-5.80;100.00;102583.91;5007717;28;20458;-74
2022/12/18 03:40:57;;;;;;;26.80;9.30;;;;;;;-5.88;100.00;102577.38;5010442;28;20481;-74
2022/12/18 03:43:35;;;;;;;20.80;9.40;;;;;;;-5.93;100.00;102577.03;5012032;28;20455;-74
2022/12/18 03:46:08;;;;;;;31.00;12.10;;;;;;;-5.91;100.00;102584.00;5004842;28;20460;-74
2022/12/18 03:48:42;;;;;;;22.77;9.70;;;;;;;-5.88;100.00;102579.94;5019902;28;20476;-74
2022/12/18 03:51:18;;;;;;;19.17;8.47;;;;;;;-5.81;100.00;102582.13;5009925;28;20475;-74
2022/12/18 03:53:51;;;;;;;27.53;11.13;;;;;;;-5.84;100.00;102574.28;5023252;28;20505;-74
2022/12/18 03:56:24;;;;;;;28.43;10.37;;;;;;;-5.86;100.00;102569.09;5026458;28;20498;-74
2022/12/18 03:58:54;;;;;;;31.70;9.57;;;;;;;-5.81;100.00;102577.03;5004837;28;20579;-74
2022/12/18 04:01:31;;;;;;;35.70;11.43;;;;;;;-5.77;100.00;102591.72;5008876;28;20675;-74
2022/12/18 04:04:00;;;;;;;26.33;10.03;;;;;;;-5.79;100.00;102595.81;5019164;28;21034;-74
2022/12/18 04:06:27;;;;;;;24.03;10.20;;;;;;;-5.80;100.00;102599.16;5003461;28;20456;-74
2022/12/18 04:08:54;;;;;;;19.80;9.60;;;;;;;-5.82;100.00;102608.28;5005358;28;20482;-74
2022/12/18 04:11:23;;;;;;;26.60;9.53;;;;;;;-5.85;100.00;102610.66;5013832;28;20473;-74
2022/12/18 04:13:49;;;;;;;18.03;7.97;;;;;;;-5.90;100.00;102605.22;5007442;28;20679;-74
2022/12/18 04:16:22;;;;;;;20.83;8.57;;;;;;;-5.92;100.00;102612.72;5022609;28;20465;-74
2022/12/18 04:18:52;;;;;;;29.30;9.77;;;;;;;-5.90;100.00;102607.75;5019576;28;20457;-74
2022/12/18 04:21:20;;;;;;;21.40;8.80;;;;;;;-5.92;100.00;102602.56;5007672;28;20462;-74
2022/12/18 04:23:48;;;;;;;25.83;8.73;;;;;;;-5.92;100.00;102596.59;5010510;28;20457;-74
2022/12/18 04:26:14;;;;;;;22.73;9.03;;;;;;;-5.88;100.00;102602.78;5021891;28;20926;-74
2022/12/18 04:28:50;;;;;;;19.07;7.90;;;;;;;-5.90;100.00;102603.56;5009446;28;20483;-74
2022/12/18 04:31:17;;;;;;;28.80;9.67;;;;;;;-5.94;100.00;102606.66;5022895;28;21001;-74
2022/12/18 04:33:45;;;;;;;27.73;9.30;;;;;;;-5.93;100.00;102612.59;5027444;28;20459;-74
2022/12/18 04:36:12;;;;;;;29.60;10.13;;;;;;;-5.95;100.00;102620.13;4998034;28;20548;-74
2022/12/18 04:38:39;;;;;;;20.40;9.83;;;;;;;-5.87;100.00;102627.41;5007295;28;21132;-74
2022/12/18 04:41:10;;;;;;;22.17;8.90;;;;;;;-5.87;100.00;102625.78;5002215;28;20469;-74
2022/12/18 04:43:37;;;;;;;21.63;8.70;;;;;;;-5.83;100.00;102629.41;5005762;28;20488;-74
2022/12/18 04:46:04;;;;;;;25.63;9.50;;;;;;;-5.81;100.00;102626.19;5024769;28;20893;-74
2022/12/18 04:48:31;;;;;;;22.77;8.97;;;;;;;-5.86;100.00;102621.56;5012669;28;20987;-74
2022/12/18 04:50:58;;;;;;;19.60;8.73;;;;;;;-5.84;100.00;102625.09;5022674;28;20480;-74
2022/12/18 04:53:25;;;;;;;27.43;8.60;;;;;;;-5.83;100.00;102627.75;5021570;28;20474;-74
2022/12/18 04:55:51;;;;;;;27.60;10.13;;;;;;;-5.83;100.00;102627.75;5017045;28;20519;-74
2022/12/18 04:58:18;;;;;;;26.17;9.50;;;;;;;-5.78;100.00;102633.19;5019656;28;20464;-74
2022/12/18 05:00:44;;;;;;;26.80;10.67;;;;;;;-5.75;100.00;102618.13;5018606;28;20480;-75
2022/12/18 05:03:10;;;;;;;23.03;9.97;;;;;;;-5.78;100.00;102625.56;5020862;28;20455;-74
2022/12/18 05:05:37;;;;;;;24.20;9.20;;;;;;;-5.75;100.00;102625.75;5020037;28;20464;-74
2022/12/18 05:08:04;;;;;;;25.97;9.20;;;;;;;-5.79;100.00;102632.28;5019331;28;20457;-75
2022/12/18 05:10:31;;;;;;;27.30;10.20;;;;;;;-5.82;100.00;102632.06;5051899;22;20514;-69
2022/12/18 05:13:01;;;;;;;23.07;10.13;;;;;;;-5.82;100.00;102639.69;5055290;28;20469;-69
2022/12/18 05:15:28;;;;;;;29.47;10.73;;;;;;;-5.82;100.00;102642.25;5057881;28;20463;-68
2022/12/18 05:17:54;;;;;;;21.77;9.17;;;;;;;-5.81;100.00;102635.50;5057200;28;20457;-69
2022/12/18 05:20:21;;;;;;;25.83;9.30;;;;;;;-5.77;100.00;102637.47;5055998;28;20475;-69
2022/12/18 05:22:47;;;;;;;24.47;10.23;;;;;;;-5.76;100.00;102641.78;5053339;28;20458;-68
2022/12/18 05:25:15;;;;;;;34.17;10.33;;;;;;;-5.76;100.00;102629.09;5059263;28;20462;-69
2022/12/18 05:27:42;;;;;;;28.80;9.67;;;;;;;-5.75;100.00;102639.38;5057107;28;20469;-69
2022/12/18 05:30:09;;;;;;;22.20;10.57;;;;;;;-5.74;100.00;102632.63;5055892;28;20493;-69
2022/12/18 05:32:36;;;;;;;29.80;10.60;;;;;;;-5.79;100.00;102636.47;5056617;28;20458;-68
2022/12/18 05:35:02;;;;;;;30.67;11.33;;;;;;;-5.76;100.00;102635.03;5057614;28;22021;-69
2022/12/18 05:37:29;;;;;;;27.40;10.97;;;;;;;-5.73;100.00;102642.03;5051585;28;20487;-69
2022/12/18 05:39:55;;;;;;;26.90;13.70;;;;;;;-5.73;100.00;102647.09;5049284;28;20930;-69
2022/12/18 05:42:23;;;;;;;27.13;10.87;;;;;;;-5.68;100.00;102644.88;5054655;28;20562;-69
2022/12/18 05:44:49;;;;;;;27.47;10.93;;;;;;;-5.69;100.00;102645.66;5055006;28;20466;-69
2022/12/18 05:47:16;;;;;;;24.17;12.07;;;;;;;-5.69;100.00;102651.63;5057754;28;20453;-69
2022/12/18 05:49:42;;;;;;;31.83;12.97;;;;;;;-5.69;100.00;102661.78;5055724;28;20494;-68
2022/12/18 05:52:09;;;;;;;34.10;13.80;;;;;;;-5.69;100.00;102656.72;5057178;28;20458;-69
2022/12/18 05:54:36;;;;;;;26.57;10.23;;;;;;;-5.72;100.00;102661.56;5058084;28;20473;-69
2022/12/18 05:57:02;;;;;;;29.13;20.83;;;;;;;-5.73;100.00;102665.78;5050743;28;20855;-69
2022/12/18 05:59:29;;;;;;;29.13;12.00;;;;;;;-5.68;100.00;102667.75;5050106;28;20816;-70
2022/12/18 06:01:56;;;;;;;27.80;13.53;;;;;;;-5.70;100.00;102670.19;5052288;28;20461;-68
2022/12/18 06:04:22;;;;;;;27.30;11.37;;;;;;;-5.69;100.00;102679.59;5058805;28;20450;-69
2022/12/18 06:06:49;;;;;;;27.03;13.20;;;;;;;-5.72;100.00;102674.28;5054098;28;20460;-69
2022/12/18 06:09:15;;;;;;;26.33;11.93;;;;;;;-5.71;100.00;102676.94;5057644;28;20476;-68
2022/12/18 06:11:41;;;;;;;33.17;13.33;;;;;;;-5.70;100.00;102682.88;5051792;28;20485;-69
2022/12/18 06:14:08;;;;;;;29.00;14.93;;;;;;;-5.63;100.00;102689.31;5054131;28;20466;-70
2022/12/18 06:16:35;;;;;;;26.63;11.20;;;;;;;-5.64;100.00;102683.34;5053615;28;20826;-69
2022/12/18 06:19:05;;;;;;;21.27;9.60;;;;;;;-5.65;100.00;102691.72;5057535;28;20474;-69
2022/12/18 06:21:32;;;;;;;27.63;11.13;;;;;;;-5.64;100.00;102682.47;5059082;28;20485;-68
2022/12/18 06:23:59;;;;;;;27.27;11.03;;;;;;;-5.65;100.00;102683.22;5056273;28;20462;-69
2022/12/18 06:26:25;;;;;;;29.10;11.53;;;;;;;-5.64;100.00;102685.00;5042295;28;20459;-69
2022/12/18 06:28:51;;;;;;;29.93;11.23;;;;;;;-5.66;100.00;102689.97;5057054;28;20457;-68
2022/12/18 06:31:18;;;;;;;29.87;11.07;;;;;;;-5.67;100.00;102693.28;5051450;28;20479;-68
2022/12/18 06:33:45;;;;;;;26.93;11.57;;;;;;;-5.63;100.00;102700.34;5056171;28;20466;-69
2022/12/18 06:36:13;;;;;;;26.90;9.97;;;;;;;-5.64;100.00;102695.19;5051933;28;20668;-69
2022/12/18 06:38:42;;;;;;;23.33;9.53;;;;;;;-5.64;100.00;102693.50;5056445;28;20456;-69
2022/12/18 06:41:09;;;;;;;20.97;10.20;;;;;;;-5.67;100.00;102693.28;5056771;28;20478;-69
2022/12/18 06:43:36;;;;;;;28.23;11.20;;;;;;;-5.69;100.00;102692.28;5057451;28;20467;-69
2022/12/18 06:46:03;;;;;;;26.77;11.47;;;;;;;-5.70;100.00;102703.22;5054077;28;21837;-68
2022/12/18 06:48:29;;;;;;;23.00;10.70;;;;;;;-5.70;100.00;102718.47;5058930;28;20539;-69
2022/12/18 06:50:57;;;;;;;20.13;9.43;;;;;;;-5.68;100.00;102716.03;5058293;28;20531;-69
2022/12/18 06:53:24;;;;;;;28.90;11.77;;;;;;;-5.62;100.00;102719.03;5060033;28;20461;-69
2022/12/18 06:55:50;;;;;;;22.50;10.60;;;;;;;-5.63;100.00;102719.81;5059437;28;20626;-69
2022/12/18 06:58:17;;;;;;;22.23;10.03;;;;;;;-5.60;100.00;102715.81;5058890;28;20545;-69
2022/12/18 07:00:44;;;;;;;26.00;10.90;;;;;;;-5.59;100.00;102724.38;5060600;28;20475;-68
2022/12/18 07:03:11;;;;;;;23.53;9.70;;;;;;;-5.63;100.00;102735.06;5059465;28;20446;-69
2022/12/18 07:05:41;;;;;;;21.63;9.17;;;;;;;-5.68;100.00;102744.00;5051721;28;20498;-69
2022/12/18 07:08:08;;;;;;;24.73;12.00;;;;;;;-5.63;100.00;102740.13;5056219;28;20520;-68
2022/12/18 07:10:41;;;;;;;22.80;10.70;;;;;;;-5.66;100.00;102743.34;5038721;28;20469;-69
2022/12/18 07:13:08;;;;;;;24.40;10.83;;;;;;;-5.67;100.00;102744.13;5060644;28;20546;-69
2022/12/18 07:15:34;;;;;;;19.33;8.80;;;;;;;-5.62;100.00;102744.47;5057287;28;20472;-69
2022/12/18 07:18:00;;;;;;;22.97;10.80;;;;;;;-5.63;100.00;102751.19;5058225;28;20457;-70
2022/12/18 07:20:27;;;;;;;30.27;10.57;;;;;;;-5.64;100.00;102757.06;5057125;28;20486;-69
2022/12/18 07:22:53;;;;;;;22.57;10.13;;;;;;;-5.64;100.00;102751.97;5032443;28;20462;-69
2022/12/18 07:25:21;;;;;;;21.63;9.83;;;;;;;-5.58;100.00;102761.69;5054711;28;20473;-69
2022/12/18 07:27:47;;;;;;;23.33;9.73;;;;;;;-5.57;100.00;102755.88;5050701;28;20466;-69
2022/12/18 07:30:14;;;;;;;22.67;9.37;;;;;;;-5.62;100.00;102749.56;5055321;28;20785;-69
2022/12/18 07:32:40;;;;;;;24.77;9.67;;;;;;;-5.66;100.00;102748.44;5042420;28;20839;-69
2022/12/18 07:35:07;;;;;;;20.60;10.03;;;;;;;-5.69;100.00;102754.97;5058235;28;20464;-68
2022/12/18 07:37:33;;;;;;;24.40;10.57;;;;;;;-5.67;100.00;102771.19;5056767;28;20562;-69
2022/12/18 07:40:00;;;;;;;24.00;9.97;;;;;;;-5.64;100.00;102771.44;5051619;28;20469;-69
2022/12/18 07:42:34;;;;;;;17.50;9.30;;;;;;;-5.63;100.00;102768.09;5051090;28;20463;-69
2022/12/18 07:45:01;;;;;;;20.40;10.20;;;;;;;-5.66;100.00;102768.78;5057548;28;20461;-69
2022/12/18 07:47:28;;;;;;;23.30;10.87;;;;;;;-5.68;100.00;102765.25;5055538;28;20461;-70
2022/12/18 07:49:54;;;;;;;26.53;11.57;;;;;;;-5.66;100.00;102771.31;5054689;28;20490;-69
2022/12/18 07:52:21;;;;;;;19.80;10.10;;;;;;;-5.57;100.00;102764.38;5058590;28;20470;-70
2022/12/18 07:54:49;;;;;;;21.90;10.60;;;;;;;-5.59;100.00;102754.88;5055501;28;20462;-69
2022/12/18 07:57:17;;;;;;;27.20;10.93;;;;;;;-5.58;100.00;102764.25;5054320;28;20460;-68
2022/12/18 07:59:44;;;;;;;21.07;10.00;;;;;;;-5.58;100.00;102765.13;5050580;28;20851;-69
2022/12/18 08:02:11;;;;;;;25.50;11.37;;;;;;;-5.59;100.00;102760.81;5058701;28;20971;-69
2022/12/18 08:04:37;;;;;;;22.23;10.37;;;;;;;-5.55;100.00;102750.09;5052971;28;20457;-67
2022/12/18 08:07:03;;;;;;;25.97;10.37;;;;;;;-5.54;100.00;102746.81;5054306;28;20959;-69
2022/12/18 08:09:30;;;;;;;30.47;10.93;;;;;;;-5.59;100.00;102758.28;5056507;28;20555;-69
2022/12/18 08:11:56;;;;;;;21.73;10.63;;;;;;;-5.52;100.00;102760.50;5054788;28;20458;-69
2022/12/18 08:14:22;;;;;;;17.73;9.33;;;;;;;-5.55;100.00;102757.72;5057658;28;21128;-69
2022/12/18 08:16:50;;;;;;;19.03;9.50;;;;;;;-5.53;100.00;102755.31;5050923;28;20470;-69
2022/12/18 08:19:16;;;;;;;20.67;11.07;;;;;;;-5.52;100.00;102754.53;5053016;28;20463;-69
2022/12/18 08:21:43;;;;;;;19.40;9.50;;;;;;;-5.56;100.00;102761.06;5038912;28;20480;-69
2022/12/18 08:24:10;;;;;;;17.17;9.67;;;;;;;-5.61;100.00;102756.38;5055860;28;20791;-68
2022/12/18 08:26:36;;;;;;;21.23;10.03;;;;;;;-5.59;100.00;102762.50;5055293;28;20471;-69
2022/12/18 08:29:02;;;;;;;20.87;9.03;;;;;;;-5.69;100.00;102763.47;5054700;28;20470;-69
2022/12/18 08:31:30;;;;;;;23.27;10.37;;;;;;;-5.66;100.00;102750.06;5053381;28;20479;-69
2022/12/18 08:33:58;;;;;;;24.67;10.33;;;;;;;-5.64;100.00;102751.97;5055502;28;20487;-69
2022/12/18 08:36:26;;;;;;;18.77;9.67;;;;;;;-5.68;100.00;102749.09;5057055;28;20457;-69
2022/12/18 08:38:53;;;;;;;19.20;9.63;;;;;;;-5.77;100.00;102755.28;5058242;28;20523;-68
2022/12/18 08:41:20;;;;;;;20.77;9.97;;;;;;;-5.73;100.00;102758.94;5056990;28;20485;-69
2022/12/18 08:46:34;;;;;;;18.87;8.77;;;;;;;-5.76;100.00;102771.41;5054049;28;20452;-69
2022/12/18 08:49:02;;;;;;;20.73;9.50;;;;;;;-5.83;100.00;102780.22;5056217;28;20978;-69
2022/12/18 08:51:28;;;;;;;20.87;9.13;;;;;;;-5.77;100.00;102779.78;5057924;28;20505;-68
2022/12/18 08:53:55;;;;;;;22.77;8.13;;;;;;;-5.76;100.00;102773.94;5036560;28;21009;-69
2022/12/18 08:56:21;;;;;;;17.00;8.73;;;;;;;-5.71;100.00;102777.72;5056916;28;20466;-69
2022/12/18 08:58:48;;;;;;;21.03;9.50;;;;;;;-5.72;100.00;102775.94;5054774;28;20466;-69
2022/12/18 09:01:14;;;;;;;17.90;9.00;;;;;;;-5.61;100.00;102776.72;5054803;28;20490;-69
2022/12/18 09:03:41;;;;;;;18.63;8.20;;;;;;;-5.57;100.00;102776.19;5053317;28;20463;-69
2022/12/18 09:06:09;;;;;;;22.50;12.10;;;;;;;-5.58;100.00;102782.03;5055900;28;21149;-69
2022/12/18 09:08:36;;;;;;;20.97;9.93;;;;;;;-5.56;100.00;102781.41;5058235;28;20466;-70
2022/12/18 09:11:02;;;;;;;36.87;15.73;;;;;;;-5.45;100.00;102781.28;5052160;28;21314;-69
2022/12/18 09:13:29;;;;;;;35.93;16.57;;;;;;;-5.41;100.00;102784.16;5053618;28;20462;-69
2022/12/18 09:15:56;;;;;;;31.63;14.67;;;;;;;-5.38;100.00;102776.78;5055655;28;20629;-68
2022/12/18 09:18:24;;;;;;;21.60;10.77;;;;;;;-5.39;100.00;102776.66;5052495;28;20497;-68
2022/12/18 09:20:52;;;;;;;41.40;19.00;;;;;;;-5.36;100.00;102779.44;5057283;28;20482;-69
2022/12/18 09:23:20;;;;;;;28.93;12.23;;;;;;;-5.44;100.00;102775.44;5057322;28;20474;-68
2022/12/18 09:25:46;;;;;;;19.37;9.30;;;;;;;-5.45;100.00;102779.66;5057267;28;20464;-68
2022/12/18 09:28:18;;;;;;;19.70;9.77;;;;;;;-5.43;100.00;102782.31;5056319;28;20466;-68
2022/12/18 09:30:47;;;;;;;17.83;8.83;;;;;;;-5.36;100.00;102789.59;5053868;28;20494;-69
2022/12/18 09:33:13;;;;;;;14.60;8.13;;;;;;;-5.35;100.00;102793.91;5022022;28;20491;-68
2022/12/18 09:35:40;;;;;;;21.40;10.00;;;;;;;-5.35;100.00;102799.91;5006168;28;20469;-69
2022/12/18 09:38:08;;;;;;;24.17;9.87;;;;;;;-5.29;100.00;102802.00;5019114;28;20472;-69
2022/12/18 09:40:40;;;;;;;27.30;11.80;;;;;;;-5.31;100.00;102803.53;5019894;28;20488;-68
2022/12/18 09:43:08;;;;;;;26.23;13.33;;;;;;;-5.28;100.00;102807.97;5017504;28;20450;-69
2022/12/18 09:45:41;;;;;;;17.93;9.53;;;;;;;-5.27;100.00;102814.81;4997534;28;20460;-68
2022/12/18 09:48:15;;;;;;;21.30;10.43;;;;;;;-5.27;100.00;102817.38;5021175;28;20475;-67
2022/12/18 09:50:41;;;;;;;17.30;8.93;;;;;;;-5.32;100.00;102817.91;5025463;28;20866;-69
2022/12/18 09:53:14;;;;;;;19.13;10.27;;;;;;;-5.33;100.00;102825.41;5018858;28;20465;-69
2022/12/18 09:55:43;;;;;;;23.40;10.57;;;;;;;-5.30;100.00;102832.41;5015954;28;20457;-69
2022/12/18 09:58:19;;;;;;;19.80;9.23;;;;;;;-5.32;100.00;102839.91;5016624;28;20478;-68
2022/12/18 10:00:45;;;;;;;21.03;8.90;;;;;;;-5.25;100.00;102831.97;5012281;28;20488;-69
2022/12/18 10:03:15;;;;;;;17.40;9.17;;;;;;;-5.21;100.00;102828.84;5011835;28;20916;-69
2022/12/18 10:05:47;;;;;;;19.57;8.77;;;;;;;-5.18;100.00;102815.50;5011900;28;20457;-68
2022/12/18 10:08:21;;;;;;;15.57;9.03;;;;;;;-5.13;100.00;102822.69;5012636;28;20488;-70
2022/12/18 10:10:52;;;;;;;24.37;12.40;;;;;;;-5.10;100.00;102822.03;5014213;28;20494;-69
2022/12/18 10:13:25;;;;;;;16.57;8.83;;;;;;;-5.17;100.00;102813.06;5012656;28;21147;-69
2022/12/18 10:16:10;;;;;;;19.57;9.20;;;;;;;-5.26;100.00;102807.31;5011832;28;20817;-68
2022/12/18 10:19:03;;;;;;;21.73;10.07;;;;;;;-5.15;100.00;102800.47;5013714;28;20898;-69
2022/12/18 10:21:35;;;;;;;19.50;10.47;;;;;;;-5.16;100.00;102798.69;5010026;28;20583;-70
2022/12/18 10:24:12;;;;;;;17.77;9.40;;;;;;;-5.15;100.00;102790.28;5014656;28;20823;-69
2022/12/18 10:26:42;;;;;;;23.73;10.63;;;;;;;-5.21;100.00;102777.09;5016021;28;20522;-69
2022/12/18 10:29:12;;;;;;;15.90;8.73;;;;;;;-5.13;100.00;102773.47;5018717;28;20476;-68
2022/12/18 10:31:39;;;;;;;29.23;11.00;;;;;;;-5.05;100.00;102763.84;5016253;28;20483;-69
2022/12/18 10:34:05;;;;;;;21.33;10.03;;;;;;;-4.99;100.00;102764.28;4996973;28;20466;-69
2022/12/18 10:36:31;;;;;;;23.10;10.47;;;;;;;-5.07;100.00;102760.28;5016482;28;20477;-69
2022/12/18 10:39:15;;;;;;;22.07;11.00;;;;;;;-5.02;100.00;102758.97;5018252;28;20574;-68
2022/12/18 10:41:43;;;;;;;17.60;8.77;;;;;;;-5.10;100.00;102757.53;5018071;28;21020;-68
2022/12/18 10:44:17;;;;;;;14.97;7.67;;;;;;;-5.11;100.00;102754.09;5010365;28;21014;-69
2022/12/18 10:46:45;;;;;;;19.83;9.80;;;;;;;-5.20;100.00;102759.41;4998631;28;20516;-70
2022/12/18 10:49:22;;;;;;;17.47;8.77;;;;;;;-5.25;100.00;102757.31;5014265;28;20796;-69
2022/12/18 10:51:49;;;;;;;15.07;8.20;;;;;;;-5.36;100.00;102770.13;5012602;28;20478;-69
2022/12/18 10:54:17;;;;;;;17.03;8.33;;;;;;;-5.35;100.00;102761.75;5018030;28;20610;-69
2022/12/18 10:56:46;;;;;;;19.07;8.70;;;;;;;-5.36;100.00;102754.88;5014088;28;20683;-69
2022/12/18 10:59:15;;;;;;;14.70;8.27;;;;;;;-5.26;100.00;102751.34;5017338;28;20588;-68
2022/12/18 11:01:50;;;;;;;18.60;9.17;;;;;;;-5.19;100.00;102753.56;5014372;28;20487;-68
2022/12/18 11:04:20;;;;;;;13.33;7.67;;;;;;;-5.22;100.00;102752.47;5016762;28;20488;-69
2022/12/18 11:06:56;;;;;;;14.80;8.13;;;;;;;-5.17;100.00;102748.56;5014791;28;20469;-69
2022/12/18 11:09:24;;;;;;;11.67;7.07;;;;;;;-5.10;100.00;102744.81;5021705;28;20464;-69
2022/12/18 11:11:54;;;;;;;13.20;7.17;;;;;;;-5.09;100.00;102742.38;5014812;28;20490;-69
2022/12/18 11:14:23;;;;;;;20.53;8.67;;;;;;;-5.10;100.00;102730.44;5017198;28;20204;-69
2022/12/18 11:16:52;;;;;;;13.93;8.23;;;;;;;-5.15;100.00;102735.19;5032629;28;20475;-68
2022/12/18 11:19:32;;;;;;;16.30;8.33;;;;;;;-5.09;100.00;102727.09;5020714;28;20643;-69